Airfield :
LOGIN :

Register | Disclaimer

   EN    FR    IT 

 










Legend :    VFR   Marginal VFR   IFR   Intensive IFR   Very Intensive IFR
Visi :
Ceiling :
>= 8 km
>= 3000ft
5 to 8 km
1000 to 3000 ft
1500m to 5 km
500 to 1000 ft
800 to 1500m
200 to 500 ft
< 800m
< 200 ft
Symbols :   Thunderstorms  Fog  Heavy snow  Heavy precipitations  Wind > 20 kt
SIGMETs :     Misc.  Thunderstorms  Icing  Turbulence  Mountain Waves  Volcanic Ashes







- Airport Elevation : 256 ft
- IATA code : CFR
- Download approach charts


LFRK - Caen

CURRENT METAR :
  • 261630Z AUTO 33007KT 300V360 CAVOK 12/02 Q1033 NOSIG

EXPIRED METARs :
  • 261600Z AUTO 35007KT 310V020 CAVOK 12/02 Q1033 NOSIG
  • 261530Z AUTO 34007KT 310V040 CAVOK 12/01 Q1034 NOSIG
  • 261500Z AUTO 36007KT 330V040 CAVOK 12/02 Q1034 NOSIG
  • 261430Z AUTO 34008KT 320V020 9999 FEW043 12/01 Q1034 NOSIG
  • 261400Z AUTO 33007KT 290V010 9999 FEW043 12/02 Q1034 NOSIG

TAF TAF LFRK
Valid from the 26 at 15:00 until the 27 at 00:00 UTC


261400Z 2615/2624 35006KT 9999 FEW040
PROB30
TEMPO 2621/2624 4000 BR
Met : +33 2 31 26 68 11
No reported NOTAMs for that airfield.



MET'MAP, your aeronautical weather chart ! - Copyright ORBIFLY December 2007 - Disclaimer

ORBIFLY MET'MAP TEAM :

Programming & Development : Alexandra Zaïnal
Concept & Development : Baudouin d'Aumeries
Co-Development & Prog : Marc-Olivier Méhu
Technical & hardware support : Manuel Goepfert

Contact : metmap@orbifly.com




SOURCES & CREDITS :

   NOAA